Antonia, MO

1:35 PM CDT on April 25, 2015 (GMT -0500)
Washington | | Change Station
CLOSE
Current Station
Airport
Location: Washington,
Elevation: 486 ft
Nearby Weather Stations
Active Advisory: Tornado Watch Active Notice: Public Information Statement

Elev 486 ft 38.59 °N, 90.99 °W | Updated 20 minutes ago

Overcast
Overcast
63 °F
Feels Like 63 °F
N
0
Wind Variable Wind from North

Today
High -- | Low -- °F
--% Chance of Precip.
Yesterday
High -- | Low -- °F
Precip. -- in
6:12 AM 7:47 PM
Waxing Crescent, 48% visible
Pressure 29.47 in
Visibility 1.2 miles
Clouds Scattered Clouds 200 ft
Scattered Clouds 4100 ft
Dew Point 61 °F
Humidity 94%
Rainfall 0.06 in
Snow Depth Not available.
UV 8 out of 12
Pollen 10.20 out of 12
Air Quality Not available.
Flu Activity Local Activity
METAR KFYG 251815Z AUTO 00000KT 1 1/4SM RA SCT002 SCT041 17/16 A2947 RMK AO2 P0006

More Conditions Fewer Conditions

Pressure 29.47 in
Visibility 1.2 miles
Clouds Scattered Clouds 200 ft
Scattered Clouds 4100 ft
Dew Point 61 °F
Humidity 94%
Rainfall 0.06 in
Snow Depth Not available.
UV 8 out of 12
Pollen 10.20 out of 12
Air Quality Not available.
Flu Activity Local Activity
METAR KFYG 251815Z AUTO 00000KT 1 1/4SM RA SCT002 SCT041 17/16 A2947 RMK AO2 P0006

More Conditions Fewer Conditions

10-Day Weather Forecast

Almanac

Astronomy

Apr. 25, 2015 Rise Set
Actual Time
Civil Twilight
Nautical Twilight
Astronomical Twilight
Moon
Length of Visible Light
Length of Day
Tomorrow will be .
, % of the Moon is Illuminated

Today's Extremes

State Highs State Lows

Community

WunderPhotos

Upload Photos

1,816,766 photos uploaded!

WunderBlogs® & News

Nearby

Air Quality

  Air Quality AQ Index Pollutant
Not available.

Snow Depth

Station Depth Elevation

Earthquake Activity

City Distance Mag. Time & Date
Minimum magnitude displayed is 2.5.

Coastal Water Temperatures

Place Temperature

Stations

Nearby Weather Stations

Station Location Temp. Windchill Dew Point Humidity Wind Precip. Elev Updated Type
                   
Tornado Watch
Statement as of 1:24 PM CDT on April 25, 2015

Tornado Watch 112 remains in effect until 800 PM CDT for the
following locations

MO
. Missouri counties included are

Bollinger Cape Girardeau Crawford
Franklin Gasconade Iron
Jefferson Lincoln Madison
Mississippi Montgomery New Madrid
Perry Pike Reynolds
St. Charles Ste. Genevieve St. Francois
St. Louis Scott Stoddard
Warren Washington


Missouri independent cities included are

St. Louis city